sensor_id;sensor_type;location;lat;lon;timestamp;temperature;humidity
7708;DHT22;3896;48.758;8.888;2023-08-20T00:00:25;22.60;99.90
7708;DHT22;3896;48.758;8.888;2023-08-20T00:03:03;22.60;99.90
7708;DHT22;3896;48.758;8.888;2023-08-20T00:05:31;22.50;99.90
7708;DHT22;3896;48.758;8.888;2023-08-20T00:07:56;22.60;99.90
7708;DHT22;3896;48.758;8.888;2023-08-20T00:10:22;22.50;99.90
7708;DHT22;3896;48.758;8.888;2023-08-20T00:12:48;22.50;99.90
7708;DHT22;3896;48.758;8.888;2023-08-20T00:15:13;22.50;99.90
7708;DHT22;3896;48.758;8.888;2023-08-20T00:17:39;22.40;99.90
7708;DHT22;3896;48.758;8.888;2023-08-20T00:20:09;22.40;99.90
7708;DHT22;3896;48.758;8.888;2023-08-20T00:22:38;22.30;99.90
7708;DHT22;3896;48.758;8.888;2023-08-20T00:25:05;22.30;99.90
7708;DHT22;3896;48.758;8.888;2023-08-20T00:27:31;22.30;99.90
7708;DHT22;3896;48.758;8.888;2023-08-20T00:29:56;22.30;99.90
7708;DHT22;3896;48.758;8.888;2023-08-20T00:32:22;22.20;99.90
7708;DHT22;3896;48.758;8.888;2023-08-20T00:34:48;22.20;99.90
7708;DHT22;3896;48.758;8.888;2023-08-20T00:37:13;22.20;99.90
7708;DHT22;3896;48.758;8.888;2023-08-20T00:39:39;22.20;99.90
7708;DHT22;3896;48.758;8.888;2023-08-20T00:42:04;22.10;99.90
7708;DHT22;3896;48.758;8.888;2023-08-20T00:44:31;22.10;99.90
7708;DHT22;3896;48.758;8.888;2023-08-20T00:46:57;22.10;99.90
7708;DHT22;3896;48.758;8.888;2023-08-20T00:49:24;22.10;99.90
7708;DHT22;3896;48.758;8.888;2023-08-20T00:51:50;22.00;99.90
7708;DHT22;3896;48.758;8.888;2023-08-20T00:54:16;22.00;99.90
7708;DHT22;3896;48.758;8.888;2023-08-20T00:56:42;22.00;99.90
7708;DHT22;3896;48.758;8.888;2023-08-20T00:59:08;22.00;99.90
7708;DHT22;3896;48.758;8.888;2023-08-20T01:01:34;21.90;99.90
7708;DHT22;3896;48.758;8.888;2023-08-20T01:03:59;21.90;99.90
7708;DHT22;3896;48.758;8.888;2023-08-20T01:07:17;21.90;99.90
7708;DHT22;3896;48.758;8.888;2023-08-20T01:12:35;21.80;99.90
7708;DHT22;3896;48.758;8.888;2023-08-20T01:15:01;21.80;99.90
7708;DHT22;3896;48.758;8.888;2023-08-20T01:17:27;21.80;99.90
7708;DHT22;3896;48.758;8.888;2023-08-20T01:19:53;21.80;99.90
7708;DHT22;3896;48.758;8.888;2023-08-20T01:25:11;21.70;99.90
7708;DHT22;3896;48.758;8.888;2023-08-20T01:30:39;21.60;99.90
7708;DHT22;3896;48.758;8.888;2023-08-20T01:33:05;21.70;99.90
7708;DHT22;3896;48.758;8.888;2023-08-20T01:35:31;21.70;99.90
7708;DHT22;3896;48.758;8.888;2023-08-20T01:37:57;21.60;99.90
7708;DHT22;3896;48.758;8.888;2023-08-20T01:40:23;21.60;99.90
7708;DHT22;3896;48.758;8.888;2023-08-20T01:42:48;21.60;99.90
7708;DHT22;3896;48.758;8.888;2023-08-20T01:45:14;21.60;99.90
7708;DHT22;3896;48.758;8.888;2023-08-20T01:47:39;21.60;99.90
7708;DHT22;3896;48.758;8.888;2023-08-20T01:50:05;21.50;99.90
7708;DHT22;3896;48.758;8.888;2023-08-20T01:52:31;21.50;99.90
7708;DHT22;3896;48.758;8.888;2023-08-20T01:54:57;21.50;99.90
7708;DHT22;3896;48.758;8.888;2023-08-20T01:57:23;21.50;99.90
7708;DHT22;3896;48.758;8.888;2023-08-20T01:59:49;21.50;99.90
7708;DHT22;3896;48.758;8.888;2023-08-20T02:02:14;21.40;99.90
7708;DHT22;3896;48.758;8.888;2023-08-20T02:04:40;21.40;99.90
7708;DHT22;3896;48.758;8.888;2023-08-20T02:07:05;21.40;99.90
7708;DHT22;3896;48.758;8.888;2023-08-20T02:09:31;21.40;99.90
7708;DHT22;3896;48.758;8.888;2023-08-20T02:11:57;21.30;99.90
7708;DHT22;3896;48.758;8.888;2023-08-20T02:14:22;21.30;99.90
7708;DHT22;3896;48.758;8.888;2023-08-20T02:16:48;21.30;99.90
7708;DHT22;3896;48.758;8.888;2023-08-20T02:19:13;21.30;99.90
7708;DHT22;3896;48.758;8.888;2023-08-20T02:21:40;21.20;99.90
7708;DHT22;3896;48.758;8.888;2023-08-20T02:24:06;21.20;99.90
7708;DHT22;3896;48.758;8.888;2023-08-20T02:26:31;21.20;99.90
7708;DHT22;3896;48.758;8.888;2023-08-20T02:28:57;21.20;99.90
7708;DHT22;3896;48.758;8.888;2023-08-20T02:31:23;21.20;99.90
7708;DHT22;3896;48.758;8.888;2023-08-20T02:33:48;21.10;99.90
7708;DHT22;3896;48.758;8.888;2023-08-20T02:36:14;21.10;99.90
7708;DHT22;3896;48.758;8.888;2023-08-20T02:38:40;21.10;99.90
7708;DHT22;3896;48.758;8.888;2023-08-20T02:41:05;21.10;99.90
7708;DHT22;3896;48.758;8.888;2023-08-20T02:43:31;21.00;99.90
7708;DHT22;3896;48.758;8.888;2023-08-20T02:45:56;21.00;99.90
7708;DHT22;3896;48.758;8.888;2023-08-20T02:48:22;21.00;99.90
7708;DHT22;3896;48.758;8.888;2023-08-20T02:50:53;21.00;99.90
7708;DHT22;3896;48.758;8.888;2023-08-20T02:53:18;20.90;99.90
7708;DHT22;3896;48.758;8.888;2023-08-20T02:55:44;20.90;99.90
7708;DHT22;3896;48.758;8.888;2023-08-20T02:58:09;20.90;99.90
7708;DHT22;3896;48.758;8.888;2023-08-20T03:00:35;20.90;99.90
7708;DHT22;3896;48.758;8.888;2023-08-20T03:03:02;20.90;99.90
7708;DHT22;3896;48.758;8.888;2023-08-20T03:05:34;20.80;99.90
7708;DHT22;3896;48.758;8.888;2023-08-20T03:07:59;20.80;99.90
7708;DHT22;3896;48.758;8.888;2023-08-20T03:10:26;20.80;99.90
7708;DHT22;3896;48.758;8.888;2023-08-20T03:12:52;20.70;99.90
7708;DHT22;3896;48.758;8.888;2023-08-20T03:15:18;20.70;99.90
7708;DHT22;3896;48.758;8.888;2023-08-20T03:17:43;20.70;99.90
7708;DHT22;3896;48.758;8.888;2023-08-20T03:20:09;20.70;99.90
7708;DHT22;3896;48.758;8.888;2023-08-20T03:22:37;20.60;99.90
7708;DHT22;3896;48.758;8.888;2023-08-20T03:25:03;20.60;99.90
7708;DHT22;3896;48.758;8.888;2023-08-20T03:27:28;20.60;99.90
7708;DHT22;3896;48.758;8.888;2023-08-20T03:29:54;20.50;99.90
7708;DHT22;3896;48.758;8.888;2023-08-20T03:32:20;20.50;99.90
7708;DHT22;3896;48.758;8.888;2023-08-20T03:34:45;20.50;99.90
7708;DHT22;3896;48.758;8.888;2023-08-20T03:37:11;20.50;99.90
7708;DHT22;3896;48.758;8.888;2023-08-20T03:39:37;20.40;99.90
7708;DHT22;3896;48.758;8.888;2023-08-20T03:42:02;20.40;99.90
7708;DHT22;3896;48.758;8.888;2023-08-20T03:44:28;20.40;99.90
7708;DHT22;3896;48.758;8.888;2023-08-20T03:46:55;20.40;99.90
7708;DHT22;3896;48.758;8.888;2023-08-20T03:49:20;20.40;99.90
7708;DHT22;3896;48.758;8.888;2023-08-20T03:51:47;20.40;99.90
7708;DHT22;3896;48.758;8.888;2023-08-20T03:54:13;20.40;99.90
7708;DHT22;3896;48.758;8.888;2023-08-20T03:56:39;20.30;99.90
7708;DHT22;3896;48.758;8.888;2023-08-20T03:59:04;20.30;99.90
7708;DHT22;3896;48.758;8.888;2023-08-20T04:01:30;20.30;99.90
7708;DHT22;3896;48.758;8.888;2023-08-20T04:03:56;20.30;99.90
7708;DHT22;3896;48.758;8.888;2023-08-20T04:06:21;20.20;99.90
7708;DHT22;3896;48.758;8.888;2023-08-20T04:08:47;20.20;99.90
7708;DHT22;3896;48.758;8.888;2023-08-20T04:11:12;20.20;99.90
7708;DHT22;3896;48.758;8.888;2023-08-20T04:13:38;20.20;99.90
7708;DHT22;3896;48.758;8.888;2023-08-20T04:16:05;20.20;99.90
7708;DHT22;3896;48.758;8.888;2023-08-20T04:18:30;20.10;99.90
7708;DHT22;3896;48.758;8.888;2023-08-20T04:20:56;20.10;99.90
7708;DHT22;3896;48.758;8.888;2023-08-20T04:23:23;20.10;99.90
7708;DHT22;3896;48.758;8.888;2023-08-20T04:25:48;20.10;99.90
7708;DHT22;3896;48.758;8.888;2023-08-20T04:28:14;20.10;99.90
7708;DHT22;3896;48.758;8.888;2023-08-20T04:30:39;20.00;99.90
7708;DHT22;3896;48.758;8.888;2023-08-20T04:33:05;20.00;99.90
7708;DHT22;3896;48.758;8.888;2023-08-20T04:35:31;20.00;99.90
7708;DHT22;3896;48.758;8.888;2023-08-20T04:37:56;20.00;99.90
7708;DHT22;3896;48.758;8.888;2023-08-20T04:40:22;20.00;99.90
7708;DHT22;3896;48.758;8.888;2023-08-20T04:42:48;20.00;99.90
7708;DHT22;3896;48.758;8.888;2023-08-20T04:45:13;20.00;99.90
7708;DHT22;3896;48.758;8.888;2023-08-20T04:47:39;20.00;99.90
7708;DHT22;3896;48.758;8.888;2023-08-20T04:50:05;19.90;99.90
7708;DHT22;3896;48.758;8.888;2023-08-20T04:52:33;19.90;99.90
7708;DHT22;3896;48.758;8.888;2023-08-20T04:55:00;19.90;99.90
7708;DHT22;3896;48.758;8.888;2023-08-20T04:57:26;19.90;99.90
7708;DHT22;3896;48.758;8.888;2023-08-20T04:59:51;19.90;99.90
7708;DHT22;3896;48.758;8.888;2023-08-20T05:02:17;19.90;99.90
7708;DHT22;3896;48.758;8.888;2023-08-20T05:04:42;19.80;99.90
7708;DHT22;3896;48.758;8.888;2023-08-20T05:07:08;19.80;99.90
7708;DHT22;3896;48.758;8.888;2023-08-20T05:09:34;19.80;99.90
7708;DHT22;3896;48.758;8.888;2023-08-20T05:12:00;19.90;99.90
7708;DHT22;3896;48.758;8.888;2023-08-20T05:14:25;19.80;99.90
7708;DHT22;3896;48.758;8.888;2023-08-20T05:16:51;19.90;99.90
7708;DHT22;3896;48.758;8.888;2023-08-20T05:19:16;19.90;99.90
7708;DHT22;3896;48.758;8.888;2023-08-20T05:21:42;19.90;99.90
7708;DHT22;3896;48.758;8.888;2023-08-20T05:24:07;19.90;99.90
7708;DHT22;3896;48.758;8.888;2023-08-20T05:26:34;19.90;99.90
7708;DHT22;3896;48.758;8.888;2023-08-20T05:28:59;19.90;99.90
7708;DHT22;3896;48.758;8.888;2023-08-20T05:31:25;19.90;99.90
7708;DHT22;3896;48.758;8.888;2023-08-20T05:33:50;20.00;99.90
7708;DHT22;3896;48.758;8.888;2023-08-20T05:36:16;20.00;99.90
7708;DHT22;3896;48.758;8.888;2023-08-20T05:38:41;20.00;99.90
7708;DHT22;3896;48.758;8.888;2023-08-20T05:41:10;20.00;99.90
7708;DHT22;3896;48.758;8.888;2023-08-20T05:43:35;20.10;99.90
7708;DHT22;3896;48.758;8.888;2023-08-20T05:46:04;20.10;99.90
7708;DHT22;3896;48.758;8.888;2023-08-20T05:48:30;20.10;99.90
7708;DHT22;3896;48.758;8.888;2023-08-20T05:50:55;20.20;99.90
7708;DHT22;3896;48.758;8.888;2023-08-20T05:53:22;20.30;99.90
7708;DHT22;3896;48.758;8.888;2023-08-20T05:55:48;20.30;99.90
7708;DHT22;3896;48.758;8.888;2023-08-20T05:58:13;20.30;99.90
7708;DHT22;3896;48.758;8.888;2023-08-20T06:00:39;20.40;99.90
7708;DHT22;3896;48.758;8.888;2023-08-20T06:03:05;20.40;99.90
7708;DHT22;3896;48.758;8.888;2023-08-20T06:05:31;20.50;99.90
7708;DHT22;3896;48.758;8.888;2023-08-20T06:07:56;20.50;99.90
7708;DHT22;3896;48.758;8.888;2023-08-20T06:10:22;20.60;99.90
7708;DHT22;3896;48.758;8.888;2023-08-20T06:12:47;20.70;99.90
7708;DHT22;3896;48.758;8.888;2023-08-20T06:15:14;20.70;99.90
7708;DHT22;3896;48.758;8.888;2023-08-20T06:17:40;20.70;99.90
7708;DHT22;3896;48.758;8.888;2023-08-20T06:20:06;20.80;99.90
7708;DHT22;3896;48.758;8.888;2023-08-20T06:22:34;20.80;99.90
7708;DHT22;3896;48.758;8.888;2023-08-20T06:24:59;20.90;99.90
7708;DHT22;3896;48.758;8.888;2023-08-20T06:27:25;20.90;99.90
7708;DHT22;3896;48.758;8.888;2023-08-20T06:29:50;21.00;99.90
7708;DHT22;3896;48.758;8.888;2023-08-20T06:32:16;21.10;99.90
7708;DHT22;3896;48.758;8.888;2023-08-20T06:34:42;21.10;99.90
7708;DHT22;3896;48.758;8.888;2023-08-20T06:37:07;21.30;99.90
7708;DHT22;3896;48.758;8.888;2023-08-20T06:39:33;21.30;99.90
7708;DHT22;3896;48.758;8.888;2023-08-20T06:41:58;21.40;99.90
7708;DHT22;3896;48.758;8.888;2023-08-20T06:44:24;21.50;99.90
7708;DHT22;3896;48.758;8.888;2023-08-20T06:46:49;21.60;99.90
7708;DHT22;3896;48.758;8.888;2023-08-20T06:49:15;21.70;99.90
7708;DHT22;3896;48.758;8.888;2023-08-20T06:51:40;21.80;99.90
7708;DHT22;3896;48.758;8.888;2023-08-20T06:54:06;21.80;99.90
7708;DHT22;3896;48.758;8.888;2023-08-20T06:56:32;21.90;99.90
7708;DHT22;3896;48.758;8.888;2023-08-20T06:58:58;22.00;99.90
7708;DHT22;3896;48.758;8.888;2023-08-20T07:01:24;22.00;99.90
7708;DHT22;3896;48.758;8.888;2023-08-20T07:03:49;22.10;99.90
7708;DHT22;3896;48.758;8.888;2023-08-20T07:06:15;22.10;99.90
7708;DHT22;3896;48.758;8.888;2023-08-20T07:08:42;22.20;99.90
7708;DHT22;3896;48.758;8.888;2023-08-20T07:11:08;22.30;99.90
7708;DHT22;3896;48.758;8.888;2023-08-20T07:13:35;22.30;99.90
7708;DHT22;3896;48.758;8.888;2023-08-20T07:16:00;22.40;99.90
7708;DHT22;3896;48.758;8.888;2023-08-20T07:18:26;22.50;99.90
7708;DHT22;3896;48.758;8.888;2023-08-20T07:20:52;22.50;99.90
7708;DHT22;3896;48.758;8.888;2023-08-20T07:23:17;22.70;99.90
7708;DHT22;3896;48.758;8.888;2023-08-20T07:25:43;22.70;99.90
7708;DHT22;3896;48.758;8.888;2023-08-20T07:28:10;22.80;99.90
7708;DHT22;3896;48.758;8.888;2023-08-20T07:30:36;22.90;99.90
7708;DHT22;3896;48.758;8.888;2023-08-20T07:33:02;23.00;99.90
7708;DHT22;3896;48.758;8.888;2023-08-20T07:35:29;23.10;99.90
7708;DHT22;3896;48.758;8.888;2023-08-20T07:37:55;23.20;99.90
7708;DHT22;3896;48.758;8.888;2023-08-20T07:40:20;23.30;99.90
7708;DHT22;3896;48.758;8.888;2023-08-20T07:42:46;23.40;99.90
7708;DHT22;3896;48.758;8.888;2023-08-20T07:45:12;23.60;99.90
7708;DHT22;3896;48.758;8.888;2023-08-20T07:47:38;23.70;99.90
7708;DHT22;3896;48.758;8.888;2023-08-20T07:50:04;23.80;99.90
7708;DHT22;3896;48.758;8.888;2023-08-20T07:52:31;23.90;99.90
7708;DHT22;3896;48.758;8.888;2023-08-20T07:54:56;24.10;99.90
7708;DHT22;3896;48.758;8.888;2023-08-20T07:57:22;24.20;99.90
7708;DHT22;3896;48.758;8.888;2023-08-20T07:59:49;24.30;99.90
7708;DHT22;3896;48.758;8.888;2023-08-20T08:02:14;24.40;99.90
7708;DHT22;3896;48.758;8.888;2023-08-20T08:04:40;24.50;99.90
7708;DHT22;3896;48.758;8.888;2023-08-20T08:07:07;24.50;99.90
7708;DHT22;3896;48.758;8.888;2023-08-20T08:09:32;24.60;99.90
7708;DHT22;3896;48.758;8.888;2023-08-20T08:11:58;24.70;99.90
7708;DHT22;3896;48.758;8.888;2023-08-20T08:14:24;24.80;99.90
7708;DHT22;3896;48.758;8.888;2023-08-20T08:16:50;25.00;99.90
7708;DHT22;3896;48.758;8.888;2023-08-20T08:19:17;25.10;99.90
7708;DHT22;3896;48.758;8.888;2023-08-20T08:21:43;25.30;99.90
7708;DHT22;3896;48.758;8.888;2023-08-20T08:24:10;25.40;99.90
7708;DHT22;3896;48.758;8.888;2023-08-20T08:26:36;25.60;99.90
7708;DHT22;3896;48.758;8.888;2023-08-20T08:29:06;25.70;99.90
7708;DHT22;3896;48.758;8.888;2023-08-20T08:31:32;25.90;99.90
7708;DHT22;3896;48.758;8.888;2023-08-20T08:33:58;26.10;99.90
7708;DHT22;3896;48.758;8.888;2023-08-20T08:36:24;26.20;99.90
7708;DHT22;3896;48.758;8.888;2023-08-20T08:38:53;26.30;99.90
7708;DHT22;3896;48.758;8.888;2023-08-20T08:41:22;26.50;99.90
7708;DHT22;3896;48.758;8.888;2023-08-20T08:43:49;26.60;99.90
7708;DHT22;3896;48.758;8.888;2023-08-20T08:46:15;26.70;99.90
7708;DHT22;3896;48.758;8.888;2023-08-20T08:48:43;26.90;99.90
7708;DHT22;3896;48.758;8.888;2023-08-20T08:51:09;27.00;99.90
7708;DHT22;3896;48.758;8.888;2023-08-20T08:53:35;27.10;99.90
7708;DHT22;3896;48.758;8.888;2023-08-20T08:56:01;27.20;99.90
7708;DHT22;3896;48.758;8.888;2023-08-20T08:58:28;27.40;99.90
7708;DHT22;3896;48.758;8.888;2023-08-20T09:00:54;27.50;99.90
7708;DHT22;3896;48.758;8.888;2023-08-20T09:03:20;27.60;99.90
7708;DHT22;3896;48.758;8.888;2023-08-20T09:05:59;27.80;99.90
7708;DHT22;3896;48.758;8.888;2023-08-20T09:08:30;27.90;99.90
7708;DHT22;3896;48.758;8.888;2023-08-20T09:10:56;28.00;99.90
7708;DHT22;3896;48.758;8.888;2023-08-20T09:13:24;28.20;99.90
7708;DHT22;3896;48.758;8.888;2023-08-20T09:15:53;28.40;99.90
7708;DHT22;3896;48.758;8.888;2023-08-20T09:18:20;28.60;99.90
7708;DHT22;3896;48.758;8.888;2023-08-20T09:20:47;28.70;99.90
7708;DHT22;3896;48.758;8.888;2023-08-20T09:23:14;28.90;99.90
7708;DHT22;3896;48.758;8.888;2023-08-20T09:25:41;29.10;99.90
7708;DHT22;3896;48.758;8.888;2023-08-20T09:28:07;29.10;99.40
7708;DHT22;3896;48.758;8.888;2023-08-20T09:30:33;29.30;98.40
7708;DHT22;3896;48.758;8.888;2023-08-20T09:33:10;29.40;97.50
7708;DHT22;3896;48.758;8.888;2023-08-20T09:35:36;29.50;96.30
7708;DHT22;3896;48.758;8.888;2023-08-20T09:38:05;29.60;95.70
7708;DHT22;3896;48.758;8.888;2023-08-20T09:40:31;29.70;94.50
7708;DHT22;3896;48.758;8.888;2023-08-20T09:42:58;29.90;93.90
7708;DHT22;3896;48.758;8.888;2023-08-20T09:45:25;30.00;93.60
7708;DHT22;3896;48.758;8.888;2023-08-20T09:47:55;30.20;93.20
7708;DHT22;3896;48.758;8.888;2023-08-20T09:50:22;30.30;92.00
7708;DHT22;3896;48.758;8.888;2023-08-20T09:52:55;30.50;90.80
7708;DHT22;3896;48.758;8.888;2023-08-20T09:55:23;30.60;90.00
7708;DHT22;3896;48.758;8.888;2023-08-20T09:57:52;30.70;88.80
7708;DHT22;3896;48.758;8.888;2023-08-20T10:00:18;30.80;86.70
7708;DHT22;3896;48.758;8.888;2023-08-20T10:02:44;31.00;85.30
7708;DHT22;3896;48.758;8.888;2023-08-20T10:05:11;31.00;82.90
7708;DHT22;3896;48.758;8.888;2023-08-20T10:07:37;31.20;82.10
7708;DHT22;3896;48.758;8.888;2023-08-20T10:10:05;31.30;81.70
7708;DHT22;3896;48.758;8.888;2023-08-20T10:12:32;31.40;81.30
7708;DHT22;3896;48.758;8.888;2023-08-20T10:14:59;31.60;80.10
7708;DHT22;3896;48.758;8.888;2023-08-20T10:17:25;31.70;79.00
7708;DHT22;3896;48.758;8.888;2023-08-20T10:19:55;31.80;77.40
7708;DHT22;3896;48.758;8.888;2023-08-20T10:22:22;31.90;75.90
7708;DHT22;3896;48.758;8.888;2023-08-20T10:24:49;32.00;75.60
7708;DHT22;3896;48.758;8.888;2023-08-20T10:27:26;32.20;74.60
7708;DHT22;3896;48.758;8.888;2023-08-20T10:29:55;32.20;74.60
7708;DHT22;3896;48.758;8.888;2023-08-20T10:32:51;32.40;73.40
7708;DHT22;3896;48.758;8.888;2023-08-20T10:35:18;32.50;73.00
7708;DHT22;3896;48.758;8.888;2023-08-20T10:38:04;32.60;71.50
7708;DHT22;3896;48.758;8.888;2023-08-20T10:40:55;32.70;70.30
7708;DHT22;3896;48.758;8.888;2023-08-20T10:43:32;32.90;70.40
7708;DHT22;3896;48.758;8.888;2023-08-20T10:46:14;33.00;69.10
7708;DHT22;3896;48.758;8.888;2023-08-20T10:48:50;33.10;68.40
7708;DHT22;3896;48.758;8.888;2023-08-20T10:51:34;33.30;67.60
7708;DHT22;3896;48.758;8.888;2023-08-20T10:59:15;33.70;66.10
7708;DHT22;3896;48.758;8.888;2023-08-20T11:01:48;33.90;65.30
7708;DHT22;3896;48.758;8.888;2023-08-20T11:04:19;34.00;64.40
7708;DHT22;3896;48.758;8.888;2023-08-20T11:06:52;34.10;63.20
7708;DHT22;3896;48.758;8.888;2023-08-20T11:09:18;34.10;63.40
7708;DHT22;3896;48.758;8.888;2023-08-20T11:11:44;34.20;62.50
7708;DHT22;3896;48.758;8.888;2023-08-20T11:14:14;34.30;61.50
7708;DHT22;3896;48.758;8.888;2023-08-20T11:16:44;34.50;60.40
7708;DHT22;3896;48.758;8.888;2023-08-20T11:19:10;34.60;60.80
7708;DHT22;3896;48.758;8.888;2023-08-20T11:21:37;34.80;60.60
7708;DHT22;3896;48.758;8.888;2023-08-20T11:24:04;34.90;60.00
7708;DHT22;3896;48.758;8.888;2023-08-20T11:26:30;35.00;59.80
7708;DHT22;3896;48.758;8.888;2023-08-20T11:28:56;35.10;59.60
7708;DHT22;3896;48.758;8.888;2023-08-20T11:31:22;35.20;58.70
7708;DHT22;3896;48.758;8.888;2023-08-20T11:33:49;35.30;58.80
7708;DHT22;3896;48.758;8.888;2023-08-20T11:36:15;35.40;58.10
7708;DHT22;3896;48.758;8.888;2023-08-20T11:38:42;35.40;57.90
7708;DHT22;3896;48.758;8.888;2023-08-20T11:41:08;35.60;57.90
7708;DHT22;3896;48.758;8.888;2023-08-20T11:43:34;35.60;58.10
7708;DHT22;3896;48.758;8.888;2023-08-20T11:45:59;35.70;57.50
7708;DHT22;3896;48.758;8.888;2023-08-20T11:48:25;35.70;56.80
7708;DHT22;3896;48.758;8.888;2023-08-20T11:50:51;35.80;56.90
7708;DHT22;3896;48.758;8.888;2023-08-20T11:53:21;35.90;56.60
7708;DHT22;3896;48.758;8.888;2023-08-20T11:55:48;36.00;56.70
7708;DHT22;3896;48.758;8.888;2023-08-20T11:58:14;36.00;56.90
7708;DHT22;3896;48.758;8.888;2023-08-20T12:00:40;36.20;56.20
7708;DHT22;3896;48.758;8.888;2023-08-20T12:03:07;36.30;56.00
7708;DHT22;3896;48.758;8.888;2023-08-20T12:05:33;36.40;55.50
7708;DHT22;3896;48.758;8.888;2023-08-20T12:08:00;36.50;55.20
7708;DHT22;3896;48.758;8.888;2023-08-20T12:10:27;36.60;55.10
7708;DHT22;3896;48.758;8.888;2023-08-20T12:12:55;36.70;54.80
7708;DHT22;3896;48.758;8.888;2023-08-20T12:15:22;36.70;53.80
7708;DHT22;3896;48.758;8.888;2023-08-20T12:20:22;36.90;53.30
7708;DHT22;3896;48.758;8.888;2023-08-20T12:22:47;37.00;53.20
7708;DHT22;3896;48.758;8.888;2023-08-20T12:25:14;37.10;53.20
7708;DHT22;3896;48.758;8.888;2023-08-20T12:27:39;37.20;53.60
7708;DHT22;3896;48.758;8.888;2023-08-20T12:30:06;37.30;53.70
7708;DHT22;3896;48.758;8.888;2023-08-20T12:32:33;37.40;52.90
7708;DHT22;3896;48.758;8.888;2023-08-20T12:34:59;37.50;52.50
7708;DHT22;3896;48.758;8.888;2023-08-20T12:37:25;37.70;52.60
7708;DHT22;3896;48.758;8.888;2023-08-20T12:39:50;37.70;51.90
7708;DHT22;3896;48.758;8.888;2023-08-20T12:42:16;37.90;51.30
7708;DHT22;3896;48.758;8.888;2023-08-20T12:44:41;38.00;50.20
7708;DHT22;3896;48.758;8.888;2023-08-20T12:47:07;38.10;49.70
7708;DHT22;3896;48.758;8.888;2023-08-20T12:49:32;38.10;49.60
7708;DHT22;3896;48.758;8.888;2023-08-20T12:51:58;38.20;49.60
7708;DHT22;3896;48.758;8.888;2023-08-20T12:54:23;38.40;49.70
7708;DHT22;3896;48.758;8.888;2023-08-20T12:56:49;38.40;49.30
7708;DHT22;3896;48.758;8.888;2023-08-20T12:59:14;38.50;48.00
7708;DHT22;3896;48.758;8.888;2023-08-20T13:01:40;38.60;47.30
7708;DHT22;3896;48.758;8.888;2023-08-20T13:04:06;38.70;46.80
7708;DHT22;3896;48.758;8.888;2023-08-20T13:06:31;38.90;47.60
7708;DHT22;3896;48.758;8.888;2023-08-20T13:08:57;39.00;47.10
7708;DHT22;3896;48.758;8.888;2023-08-20T13:11:25;39.20;46.80
7708;DHT22;3896;48.758;8.888;2023-08-20T13:13:51;39.40;46.30
7708;DHT22;3896;48.758;8.888;2023-08-20T13:16:18;39.60;46.30
7708;DHT22;3896;48.758;8.888;2023-08-20T13:18:45;39.70;45.90
7708;DHT22;3896;48.758;8.888;2023-08-20T13:21:11;39.80;45.30
7708;DHT22;3896;48.758;8.888;2023-08-20T13:23:36;39.90;45.30
7708;DHT22;3896;48.758;8.888;2023-08-20T13:26:02;40.00;45.70
7708;DHT22;3896;48.758;8.888;2023-08-20T13:28:28;40.10;45.90
7708;DHT22;3896;48.758;8.888;2023-08-20T13:30:54;40.20;46.30
7708;DHT22;3896;48.758;8.888;2023-08-20T13:33:19;40.30;45.20
7708;DHT22;3896;48.758;8.888;2023-08-20T13:35:45;40.30;45.30
7708;DHT22;3896;48.758;8.888;2023-08-20T13:38:11;40.40;45.10
7708;DHT22;3896;48.758;8.888;2023-08-20T13:40:36;40.60;45.30
7708;DHT22;3896;48.758;8.888;2023-08-20T13:43:02;40.70;44.70
7708;DHT22;3896;48.758;8.888;2023-08-20T13:45:28;40.80;44.40
7708;DHT22;3896;48.758;8.888;2023-08-20T13:47:53;40.90;43.40
7708;DHT22;3896;48.758;8.888;2023-08-20T13:50:19;41.00;43.20
7708;DHT22;3896;48.758;8.888;2023-08-20T13:52:44;41.10;43.00
7708;DHT22;3896;48.758;8.888;2023-08-20T13:55:10;41.20;42.90
7708;DHT22;3896;48.758;8.888;2023-08-20T13:57:36;41.20;43.20
7708;DHT22;3896;48.758;8.888;2023-08-20T14:00:01;41.40;43.30
7708;DHT22;3896;48.758;8.888;2023-08-20T14:02:33;41.40;42.80
7708;DHT22;3896;48.758;8.888;2023-08-20T14:04:58;41.40;42.50
7708;DHT22;3896;48.758;8.888;2023-08-20T14:07:24;41.20;42.50
7708;DHT22;3896;48.758;8.888;2023-08-20T14:09:49;41.10;42.30
7708;DHT22;3896;48.758;8.888;2023-08-20T14:12:15;41.10;42.80
7708;DHT22;3896;48.758;8.888;2023-08-20T14:14:41;41.00;43.10
7708;DHT22;3896;48.758;8.888;2023-08-20T14:17:06;41.00;43.20
7708;DHT22;3896;48.758;8.888;2023-08-20T14:19:32;41.00;43.60
7708;DHT22;3896;48.758;8.888;2023-08-20T14:21:57;41.10;43.00
7708;DHT22;3896;48.758;8.888;2023-08-20T14:24:23;41.10;42.70
7708;DHT22;3896;48.758;8.888;2023-08-20T14:26:48;41.10;42.00
7708;DHT22;3896;48.758;8.888;2023-08-20T14:29:14;41.10;42.10
7708;DHT22;3896;48.758;8.888;2023-08-20T14:31:39;41.00;42.10
7708;DHT22;3896;48.758;8.888;2023-08-20T14:34:05;40.80;42.20
7708;DHT22;3896;48.758;8.888;2023-08-20T14:36:31;40.70;42.70
7708;DHT22;3896;48.758;8.888;2023-08-20T14:38:57;40.50;43.20
7708;DHT22;3896;48.758;8.888;2023-08-20T14:41:22;40.40;43.60
7708;DHT22;3896;48.758;8.888;2023-08-20T14:43:49;40.20;43.50
7708;DHT22;3896;48.758;8.888;2023-08-20T14:46:15;40.10;43.80
7708;DHT22;3896;48.758;8.888;2023-08-20T14:48:40;40.00;44.00
7708;DHT22;3896;48.758;8.888;2023-08-20T14:51:08;39.90;44.50
7708;DHT22;3896;48.758;8.888;2023-08-20T14:53:34;39.80;44.80
7708;DHT22;3896;48.758;8.888;2023-08-20T14:55:59;39.90;45.60
7708;DHT22;3896;48.758;8.888;2023-08-20T14:58:25;39.80;45.20
7708;DHT22;3896;48.758;8.888;2023-08-20T15:00:50;39.80;45.00
7708;DHT22;3896;48.758;8.888;2023-08-20T15:03:16;39.70;45.50
7708;DHT22;3896;48.758;8.888;2023-08-20T15:05:42;39.70;45.70
7708;DHT22;3896;48.758;8.888;2023-08-20T15:08:07;39.70;45.80
7708;DHT22;3896;48.758;8.888;2023-08-20T15:10:33;39.70;45.30
7708;DHT22;3896;48.758;8.888;2023-08-20T15:12:58;39.50;45.20
7708;DHT22;3896;48.758;8.888;2023-08-20T15:15:24;39.50;45.50
7708;DHT22;3896;48.758;8.888;2023-08-20T15:17:54;39.40;45.40
7708;DHT22;3896;48.758;8.888;2023-08-20T15:20:19;39.40;45.50
7708;DHT22;3896;48.758;8.888;2023-08-20T15:22:45;39.40;45.30
7708;DHT22;3896;48.758;8.888;2023-08-20T15:25:11;39.40;45.10
7708;DHT22;3896;48.758;8.888;2023-08-20T15:27:37;39.30;45.20
7708;DHT22;3896;48.758;8.888;2023-08-20T15:30:04;39.20;45.10
7708;DHT22;3896;48.758;8.888;2023-08-20T15:32:30;39.20;45.00
7708;DHT22;3896;48.758;8.888;2023-08-20T15:34:56;39.10;44.60
7708;DHT22;3896;48.758;8.888;2023-08-20T15:37:21;39.10;44.60
7708;DHT22;3896;48.758;8.888;2023-08-20T15:39:48;39.00;45.20
7708;DHT22;3896;48.758;8.888;2023-08-20T15:42:14;39.00;45.20
7708;DHT22;3896;48.758;8.888;2023-08-20T15:44:40;39.00;45.60
7708;DHT22;3896;48.758;8.888;2023-08-20T15:47:06;39.00;45.40
7708;DHT22;3896;48.758;8.888;2023-08-20T15:49:32;38.90;45.00
7708;DHT22;3896;48.758;8.888;2023-08-20T15:51:58;38.80;45.20
7708;DHT22;3896;48.758;8.888;2023-08-20T15:54:24;38.80;46.40
7708;DHT22;3896;48.758;8.888;2023-08-20T15:56:51;38.70;45.60
7708;DHT22;3896;48.758;8.888;2023-08-20T15:59:16;38.60;45.60
7708;DHT22;3896;48.758;8.888;2023-08-20T16:01:42;38.60;45.50
7708;DHT22;3896;48.758;8.888;2023-08-20T16:04:07;38.40;45.70
7708;DHT22;3896;48.758;8.888;2023-08-20T16:06:33;38.40;45.70
7708;DHT22;3896;48.758;8.888;2023-08-20T16:08:59;38.30;45.50
7708;DHT22;3896;48.758;8.888;2023-08-20T16:11:24;38.20;45.50
7708;DHT22;3896;48.758;8.888;2023-08-20T16:17:11;37.90;45.20